Time;durP1;ratioP1;P1;durP2;ratioP2;P2;SDS_P1;SDS_P2;PMS_P1;PMS_P2;Temp;Humidity;BMP_temperature;BMP_pressure;BME280_temperature;BME280_humidity;BME280_pressure;Samples;Min_cycle;Max_cycle;Signal;HPM_P1;HPM_P2
2020/12/14 00:02:11;;;;;;;6.05;2.25;;;;;;;;;;5040123;28;20198;-77
2020/12/14 00:04:37;;;;;;;9.20;2.92;;;;;;;;;;5039403;28;20274;-76
2020/12/14 00:07:03;;;;;;;4.13;1.98;;;;;;;;;;5039365;28;20289;-77
2020/12/14 00:09:31;;;;;;;4.68;2.40;;;;;;;;;;5025277;28;20183;-76
2020/12/14 00:11:57;;;;;;;4.63;1.92;;;;;;;;;;5024169;28;20178;-76
2020/12/14 00:14:23;;;;;;;5.03;2.35;;;;;;;;;;5039471;28;20194;-76
2020/12/14 00:16:49;;;;;;;14.20;2.47;;;;;;;;;;5024608;28;20182;-75
2020/12/14 00:19:15;;;;;;;4.72;2.00;;;;;;;;;;5022964;28;20507;-76
2020/12/14 00:21:41;;;;;;;4.80;2.00;;;;;;;;;;5025019;28;20625;-76
2020/12/14 00:24:07;;;;;;;4.63;2.40;;;;;;;;;;5024323;28;20250;-76
2020/12/14 00:26:33;;;;;;;4.55;1.80;;;;;;;;;;5039475;28;20468;-76
2020/12/14 00:28:59;;;;;;;5.53;1.85;;;;;;;;;;5039108;28;20187;-76
2020/12/14 00:31:25;;;;;;;4.43;2.60;;;;;;;;;;5039744;28;20179;-75
2020/12/14 00:33:51;;;;;;;2.42;1.73;;;;;;;;;;5024319;28;20429;-76
2020/12/14 00:36:17;;;;;;;5.50;2.30;;;;;;;;;;5024839;28;20243;-75
2020/12/14 00:38:43;;;;;;;2.70;1.75;;;;;;;;;;5024133;28;20194;-75
2020/12/14 00:41:11;;;;;;;3.53;2.40;;;;;;;;;;5023978;28;20217;-76
2020/12/14 00:43:37;;;;;;;5.72;2.00;;;;;;;;;;5038468;28;20187;-76
2020/12/14 00:46:03;;;;;;;3.72;1.70;;;;;;;;;;5038924;28;20209;-76
2020/12/14 00:48:29;;;;;;;5.73;2.00;;;;;;;;;;5024899;28;20185;-78
2020/12/14 00:50:55;;;;;;;4.93;1.80;;;;;;;;;;5038280;28;20433;-76
2020/12/14 00:53:21;;;;;;;8.03;1.87;;;;;;;;;;5022712;28;20465;-76
2020/12/14 00:55:47;;;;;;;2.43;1.30;;;;;;;;;;5024084;28;20472;-75
2020/12/14 00:58:13;;;;;;;5.63;1.47;;;;;;;;;;5023595;28;20438;-76
2020/12/14 01:00:39;;;;;;;4.93;1.60;;;;;;;;;;5023413;28;20425;-75
2020/12/14 01:03:05;;;;;;;2.20;1.50;;;;;;;;;;5039145;28;20192;-75
2020/12/14 01:05:31;;;;;;;2.70;1.40;;;;;;;;;;5038610;28;20480;-76
2020/12/14 01:07:57;;;;;;;5.63;1.73;;;;;;;;;;5038264;28;20453;-75
2020/12/14 01:10:23;;;;;;;5.17;1.57;;;;;;;;;;5038518;28;20209;-76
2020/12/14 01:12:48;;;;;;;3.63;1.20;;;;;;;;;;5024038;28;20434;-76
2020/12/14 01:15:14;;;;;;;4.00;1.73;;;;;;;;;;5024244;28;20228;-76
2020/12/14 01:17:40;;;;;;;4.30;1.37;;;;;;;;;;5039029;28;20464;-76
2020/12/14 01:20:07;;;;;;;4.30;2.00;;;;;;;;;;5038013;28;20441;-77
2020/12/14 01:22:33;;;;;;;9.68;1.77;;;;;;;;;;5037467;28;20270;-76
2020/12/14 01:24:59;;;;;;;5.47;1.80;;;;;;;;;;5038107;28;20175;-76
2020/12/14 01:27:24;;;;;;;2.87;1.90;;;;;;;;;;5022904;28;20457;-76
2020/12/14 01:29:50;;;;;;;3.00;1.60;;;;;;;;;;5023192;28;20429;-76
2020/12/14 01:32:16;;;;;;;7.90;1.57;;;;;;;;;;5038609;28;20473;-76
2020/12/14 01:34:42;;;;;;;4.10;1.40;;;;;;;;;;5038471;28;20441;-76
2020/12/14 01:37:08;;;;;;;4.00;1.50;;;;;;;;;;5022753;28;20458;-76
2020/12/14 01:39:34;;;;;;;3.25;1.35;;;;;;;;;;5022151;28;20441;-76
2020/12/14 01:42:00;;;;;;;1.23;1.10;;;;;;;;;;5039103;28;20220;-76
2020/12/14 01:44:26;;;;;;;4.30;1.63;;;;;;;;;;5037917;28;20188;-76
2020/12/14 01:46:53;;;;;;;3.07;1.43;;;;;;;;;;5038035;28;20515;-76
2020/12/14 01:49:19;;;;;;;1.60;1.20;;;;;;;;;;5037933;28;20445;-76
2020/12/14 01:51:45;;;;;;;6.25;1.67;;;;;;;;;;5023555;28;20186;-76
2020/12/14 01:54:27;;;;;;;4.25;1.77;;;;;;;;;;5022847;28;20578;-75
2020/12/14 01:56:53;;;;;;;5.07;1.42;;;;;;;;;;5037280;28;20630;-75
2020/12/14 01:59:19;;;;;;;3.87;1.50;;;;;;;;;;5022970;28;20257;-76
2020/12/14 02:01:45;;;;;;;6.80;1.53;;;;;;;;;;5038176;28;20464;-77
2020/12/14 02:04:11;;;;;;;6.43;1.73;;;;;;;;;;5037806;28;20445;-76
2020/12/14 02:06:37;;;;;;;4.20;1.55;;;;;;;;;;5022408;28;20194;-76
2020/12/14 02:09:03;;;;;;;5.10;1.77;;;;;;;;;;5023763;28;20472;-76
2020/12/14 02:11:29;;;;;;;3.92;1.80;;;;;;;;;;5042017;28;20437;-76
2020/12/14 02:13:55;;;;;;;3.70;1.45;;;;;;;;;;5041810;28;20182;-76
2020/12/14 02:16:21;;;;;;;2.45;1.58;;;;;;;;;;5026252;28;20201;-75
2020/12/14 02:18:47;;;;;;;3.13;1.50;;;;;;;;;;5026938;28;20210;-76
2020/12/14 02:21:15;;;;;;;2.45;1.17;;;;;;;;;;5025602;28;20190;-75
2020/12/14 02:23:41;;;;;;;3.35;1.63;;;;;;;;;;5042564;28;20193;-76
2020/12/14 02:26:07;;;;;;;1.77;1.40;;;;;;;;;;5041470;28;20202;-75
2020/12/14 02:28:33;;;;;;;2.70;1.30;;;;;;;;;;5039735;28;20456;-82
2020/12/14 02:30:58;;;;;;;1.50;1.20;;;;;;;;;;5026574;28;20785;-82
2020/12/14 02:33:24;;;;;;;8.73;1.73;;;;;;;;;;5025711;28;20425;-81
2020/12/14 02:35:50;;;;;;;2.77;1.60;;;;;;;;;;5041651;28;20522;-81
2020/12/14 02:38:16;;;;;;;2.88;1.35;;;;;;;;;;5041556;28;20437;-82
2020/12/14 02:40:42;;;;;;;3.53;1.40;;;;;;;;;;5041728;28;20193;-84
2020/12/14 02:43:08;;;;;;;1.60;1.20;;;;;;;;;;5040982;28;20446;-82
2020/12/14 02:45:36;;;;;;;3.22;1.30;;;;;;;;;;5025470;28;20478;-82
2020/12/14 02:48:03;;;;;;;1.38;1.05;;;;;;;;;;5025229;28;20197;-82
2020/12/14 02:50:29;;;;;;;3.80;1.88;;;;;;;;;;5026551;28;20178;-82
2020/12/14 02:52:55;;;;;;;2.70;1.30;;;;;;;;;;5026106;28;20174;-82
2020/12/14 02:55:21;;;;;;;3.35;1.10;;;;;;;;;;5026335;28;20240;-82
2020/12/14 02:57:47;;;;;;;4.43;1.37;;;;;;;;;;5041364;28;20198;-81
2020/12/14 03:00:13;;;;;;;8.38;1.73;;;;;;;;;;5026517;28;20474;-82
2020/12/14 03:02:39;;;;;;;2.50;1.47;;;;;;;;;;5025268;28;20182;-82
2020/12/14 03:05:05;;;;;;;2.55;1.27;;;;;;;;;;5040817;28;20455;-82
2020/12/14 03:07:31;;;;;;;7.40;1.80;;;;;;;;;;5040109;28;20203;-83
2020/12/14 03:09:57;;;;;;;2.43;1.20;;;;;;;;;;5040999;28;20244;-81
2020/12/14 03:12:24;;;;;;;5.37;1.70;;;;;;;;;;5024653;28;20487;-82
2020/12/14 03:14:51;;;;;;;1.60;1.20;;;;;;;;;;5041524;28;20433;-83
2020/12/14 03:17:17;;;;;;;3.80;1.20;;;;;;;;;;5025042;28;20210;-82
2020/12/14 03:19:43;;;;;;;4.28;1.75;;;;;;;;;;5039127;28;20217;-82
2020/12/14 03:22:09;;;;;;;2.80;1.30;;;;;;;;;;5025722;28;20195;-82
2020/12/14 03:24:35;;;;;;;4.60;1.40;;;;;;;;;;5026257;28;20460;-82
2020/12/14 03:27:01;;;;;;;2.97;1.23;;;;;;;;;;5024844;28;20220;-82
2020/12/14 03:29:27;;;;;;;3.10;1.30;;;;;;;;;;5040306;28;20536;-82
2020/12/14 03:31:52;;;;;;;2.20;1.40;;;;;;;;;;5040744;28;20452;-81
2020/12/14 03:34:18;;;;;;;2.40;1.10;;;;;;;;;;5040927;28;20440;-81
2020/12/14 03:36:44;;;;;;;1.93;1.10;;;;;;;;;;5025759;28;20469;-82
2020/12/14 03:39:10;;;;;;;1.43;1.00;;;;;;;;;;5019401;28;20464;-81
2020/12/14 03:41:36;;;;;;;1.13;1.00;;;;;;;;;;5037184;28;20456;-81
2020/12/14 03:44:02;;;;;;;1.75;1.17;;;;;;;;;;5020221;28;20985;-81
2020/12/14 03:46:31;;;;;;;2.88;1.23;;;;;;;;;;5024985;28;20203;-83
2020/12/14 03:48:57;;;;;;;2.88;1.20;;;;;;;;;;5039879;28;20238;-82
2020/12/14 03:51:23;;;;;;;4.57;1.30;;;;;;;;;;5024651;28;20252;-82
2020/12/14 03:53:50;;;;;;;2.65;1.27;;;;;;;;;;5040546;28;20225;-81
2020/12/14 03:56:19;;;;;;;2.80;1.25;;;;;;;;;;5024551;28;20659;-81
2020/12/14 03:58:45;;;;;;;3.53;1.63;;;;;;;;;;5039796;28;20187;-83
2020/12/14 04:01:12;;;;;;;3.33;1.10;;;;;;;;;;5024735;28;20186;-84
2020/12/14 04:03:38;;;;;;;3.38;1.00;;;;;;;;;;5024225;28;20633;-82
2020/12/14 04:06:04;;;;;;;3.08;0.90;;;;;;;;;;5024610;28;20241;-83
2020/12/14 04:08:30;;;;;;;6.18;1.00;;;;;;;;;;5024700;28;20189;-83
2020/12/14 04:10:56;;;;;;;2.75;1.45;;;;;;;;;;5040003;28;20182;-83
2020/12/14 04:13:22;;;;;;;3.27;1.00;;;;;;;;;;5024319;28;20229;-82
2020/12/14 04:15:48;;;;;;;2.80;1.10;;;;;;;;;;5025122;28;20422;-82
2020/12/14 04:18:14;;;;;;;2.80;1.20;;;;;;;;;;5024339;28;20413;-83
2020/12/14 04:20:40;;;;;;;2.83;1.43;;;;;;;;;;5039845;28;20476;-82
2020/12/14 04:23:06;;;;;;;4.30;1.00;;;;;;;;;;5024374;28;20444;-82
2020/12/14 04:25:32;;;;;;;2.40;1.80;;;;;;;;;;5038781;28;20194;-81
2020/12/14 04:28:00;;;;;;;4.47;1.30;;;;;;;;;;5023500;28;20206;-82
2020/12/14 04:30:26;;;;;;;3.92;1.20;;;;;;;;;;5024692;28;20413;-80
2020/12/14 04:32:52;;;;;;;1.80;1.00;;;;;;;;;;5024031;28;20186;-82
2020/12/14 04:35:18;;;;;;;2.25;1.10;;;;;;;;;;5024266;28;20241;-82
2020/12/14 04:37:44;;;;;;;1.80;1.00;;;;;;;;;;5039725;28;20659;-82
2020/12/14 04:40:10;;;;;;;1.63;0.90;;;;;;;;;;5039756;28;20189;-81
2020/12/14 04:42:37;;;;;;;1.80;1.10;;;;;;;;;;5023289;28;20178;-81
2020/12/14 04:45:04;;;;;;;2.38;1.10;;;;;;;;;;5024134;28;20190;-82
2020/12/14 04:47:30;;;;;;;3.10;0.90;;;;;;;;;;5023458;28;20213;-83
2020/12/14 04:49:56;;;;;;;1.13;0.90;;;;;;;;;;5038914;28;20579;-84
2020/12/14 04:52:23;;;;;;;1.83;1.13;;;;;;;;;;5039051;28;20429;-83
2020/12/14 04:54:49;;;;;;;1.00;0.90;;;;;;;;;;5024343;28;20229;-82
2020/12/14 04:57:16;;;;;;;1.15;0.90;;;;;;;;;;5018848;28;20187;-83
2020/12/14 04:59:42;;;;;;;3.83;1.08;;;;;;;;;;5034872;28;20558;-81
2020/12/14 05:02:08;;;;;;;2.08;0.90;;;;;;;;;;5023849;28;20193;-81
2020/12/14 05:04:35;;;;;;;1.92;0.90;;;;;;;;;;5038293;28;20210;-80
2020/12/14 05:07:01;;;;;;;2.90;1.27;;;;;;;;;;5038638;28;20236;-81
2020/12/14 05:09:27;;;;;;;2.60;1.38;;;;;;;;;;5034113;28;20266;-82
2020/12/14 05:11:53;;;;;;;2.35;1.10;;;;;;;;;;5020934;28;20186;-82
2020/12/14 05:14:30;;;;;;;1.80;1.00;;;;;;;;;;5038455;28;20186;-82
2020/12/14 05:16:56;;;;;;;2.75;1.30;;;;;;;;;;5038318;28;20520;-82
2020/12/14 05:19:26;;;;;;;1.60;0.93;;;;;;;;;;5037810;28;20187;-79
2020/12/14 05:21:56;;;;;;;5.78;1.42;;;;;;;;;;5023717;28;20205;-83
2020/12/14 05:24:22;;;;;;;3.58;1.10;;;;;;;;;;5022256;28;20194;-82
2020/12/14 05:26:49;;;;;;;1.85;1.02;;;;;;;;;;5022723;28;20659;-82
2020/12/14 05:29:16;;;;;;;1.20;0.80;;;;;;;;;;5037694;28;20190;-83
2020/12/14 05:31:42;;;;;;;4.05;1.10;;;;;;;;;;5038955;28;20277;-78
2020/12/14 05:34:12;;;;;;;0.93;0.90;;;;;;;;;;5038877;28;20191;-83
2020/12/14 05:36:38;;;;;;;1.25;1.00;;;;;;;;;;5022626;28;20855;-82
2020/12/14 05:39:04;;;;;;;1.70;1.45;;;;;;;;;;5022330;28;20206;-84
2020/12/14 05:41:30;;;;;;;2.80;1.13;;;;;;;;;;5022939;28;20190;-82
2020/12/14 05:43:57;;;;;;;1.42;1.05;;;;;;;;;;5021732;28;20445;-83
2020/12/14 05:46:23;;;;;;;2.60;1.13;;;;;;;;;;5037993;28;20214;-82
2020/12/14 05:48:49;;;;;;;1.70;1.00;;;;;;;;;;5023059;28;20209;-82
2020/12/14 05:51:15;;;;;;;4.78;1.55;;;;;;;;;;5034759;28;20509;-80
2020/12/14 05:53:42;;;;;;;3.08;1.33;;;;;;;;;;5034118;28;20182;-83
2020/12/14 05:56:08;;;;;;;1.90;1.27;;;;;;;;;;5022655;28;20217;-82
2020/12/14 05:58:36;;;;;;;3.20;1.35;;;;;;;;;;5022636;28;20201;-87
2020/12/14 06:01:03;;;;;;;5.30;1.40;;;;;;;;;;5038232;28;20193;-80
2020/12/14 06:03:29;;;;;;;1.45;1.02;;;;;;;;;;5023083;28;20201;-81
2020/12/14 06:05:59;;;;;;;2.15;1.30;;;;;;;;;;5038026;28;20196;-82
2020/12/14 06:08:44;;;;;;;1.02;0.93;;;;;;;;;;5037100;28;20656;-82
2020/12/14 06:11:10;;;;;;;5.78;1.45;;;;;;;;;;5037329;28;20194;-83
2020/12/14 06:13:48;;;;;;;5.80;2.80;;;;;;;;;;5037152;28;20545;-82
2020/12/14 06:16:18;;;;;;;4.20;1.27;;;;;;;;;;5037685;28;20194;-82
2020/12/14 06:18:45;;;;;;;1.48;1.25;;;;;;;;;;5019313;28;20230;-82
2020/12/14 06:21:12;;;;;;;1.92;1.10;;;;;;;;;;5022743;28;20202;-82
2020/12/14 06:23:40;;;;;;;6.95;1.30;;;;;;;;;;5038498;28;20240;-83
2020/12/14 06:26:09;;;;;;;3.30;1.20;;;;;;;;;;5037435;28;20584;-82
2020/12/14 06:28:35;;;;;;;3.50;1.23;;;;;;;;;;5021879;28;20182;-81
2020/12/14 06:31:02;;;;;;;4.18;1.50;;;;;;;;;;5022906;28;20293;-82
2020/12/14 06:33:38;;;;;;;3.58;1.40;;;;;;;;;;5033641;28;20190;-83
2020/12/14 06:36:21;;;;;;;2.17;1.65;;;;;;;;;;5036893;28;20186;-81
2020/12/14 06:38:47;;;;;;;2.55;1.38;;;;;;;;;;5037003;28;20190;-81
2020/12/14 06:41:24;;;;;;;4.55;1.20;;;;;;;;;;5022546;28;20175;-82
2020/12/14 06:43:51;;;;;;;4.45;1.00;;;;;;;;;;5037294;28;20178;-81
2020/12/14 06:46:27;;;;;;;3.58;1.23;;;;;;;;;;5022087;28;20237;-82
2020/12/14 06:48:53;;;;;;;3.80;1.33;;;;;;;;;;5019827;28;20186;-81
2020/12/14 06:51:20;;;;;;;2.83;1.30;;;;;;;;;;5021210;28;20201;-82
2020/12/14 06:53:50;;;;;;;1.92;1.10;;;;;;;;;;5022588;28;20269;-81
2020/12/14 06:56:39;;;;;;;1.60;0.95;;;;;;;;;;5041817;28;20186;-81
2020/12/14 06:59:26;;;;;;;3.05;1.20;;;;;;;;;;5023854;28;20531;-81
2020/12/14 07:01:57;;;;;;;2.08;1.20;;;;;;;;;;5041038;28;20182;-81
2020/12/14 07:04:29;;;;;;;1.88;1.13;;;;;;;;;;5041083;28;20198;-81
2020/12/14 07:06:55;;;;;;;2.42;1.05;;;;;;;;;;5040872;28;20209;-81
2020/12/14 07:09:26;;;;;;;2.35;1.10;;;;;;;;;;5024300;28;20182;-82
2020/12/14 07:11:52;;;;;;;1.33;1.10;;;;;;;;;;5025553;28;20238;-82
2020/12/14 07:14:28;;;;;;;5.15;1.27;;;;;;;;;;5025173;28;20213;-83
2020/12/14 07:16:54;;;;;;;3.30;1.20;;;;;;;;;;5026115;28;20170;-80
2020/12/14 07:19:20;;;;;;;2.25;1.20;;;;;;;;;;5025271;28;20213;-82
2020/12/14 07:21:48;;;;;;;4.03;1.63;;;;;;;;;;5008401;28;20175;-82
2020/12/14 07:24:17;;;;;;;2.72;1.55;;;;;;;;;;5023767;28;20432;-83
2020/12/14 07:26:43;;;;;;;3.33;1.30;;;;;;;;;;5016690;28;20214;-82
2020/12/14 07:29:09;;;;;;;2.53;1.37;;;;;;;;;;5016185;28;20194;-81
2020/12/14 07:31:35;;;;;;;2.35;1.38;;;;;;;;;;5040781;28;20433;-80
2020/12/14 07:34:01;;;;;;;3.40;1.77;;;;;;;;;;5040522;28;20181;-82
2020/12/14 07:36:28;;;;;;;5.37;1.80;;;;;;;;;;5024260;28;20214;-81
2020/12/14 07:38:56;;;;;;;4.40;1.75;;;;;;;;;;5025758;28;20519;-81
2020/12/14 07:41:22;;;;;;;9.50;1.92;;;;;;;;;;5040578;28;20201;-83
2020/12/14 07:43:49;;;;;;;6.97;1.15;;;;;;;;;;5039226;28;20214;-81
2020/12/14 07:46:16;;;;;;;2.80;1.52;;;;;;;;;;5025145;28;20272;-82
2020/12/14 07:48:42;;;;;;;3.17;1.88;;;;;;;;;;5024249;28;20666;-82
2020/12/14 07:51:08;;;;;;;4.32;1.80;;;;;;;;;;5024594;28;20238;-81
2020/12/14 07:53:34;;;;;;;6.03;1.63;;;;;;;;;;5023657;28;20249;-81
2020/12/14 07:56:03;;;;;;;5.68;1.70;;;;;;;;;;5024863;28;20443;-81
2020/12/14 07:58:29;;;;;;;4.03;1.58;;;;;;;;;;5036877;28;20490;-81
2020/12/14 08:00:55;;;;;;;2.40;1.40;;;;;;;;;;5018008;28;20407;-80
2020/12/14 08:03:22;;;;;;;2.03;1.47;;;;;;;;;;5020377;28;20410;-81
2020/12/14 08:05:48;;;;;;;2.55;1.98;;;;;;;;;;5038598;28;20433;-80
2020/12/14 08:08:15;;;;;;;3.83;1.52;;;;;;;;;;5039341;28;20178;-81
2020/12/14 08:10:41;;;;;;;6.20;2.17;;;;;;;;;;5024963;28;20185;-81
2020/12/14 08:13:13;;;;;;;4.80;1.52;;;;;;;;;;5033364;28;20210;-81
2020/12/14 08:15:40;;;;;;;3.28;1.40;;;;;;;;;;5019445;28;20179;-79
2020/12/14 08:18:06;;;;;;;2.45;1.45;;;;;;;;;;5036415;28;20315;-81
2020/12/14 08:20:33;;;;;;;3.17;1.30;;;;;;;;;;5019890;28;20193;-81
2020/12/14 08:23:00;;;;;;;3.17;1.83;;;;;;;;;;5015124;28;20210;-81
2020/12/14 08:25:30;;;;;;;3.05;1.67;;;;;;;;;;5024559;28;20190;-81
2020/12/14 08:27:58;;;;;;;3.30;1.52;;;;;;;;;;5039194;28;20206;-81
2020/12/14 08:30:25;;;;;;;5.25;1.17;;;;;;;;;;5025235;28;20183;-81
2020/12/14 08:33:06;;;;;;;4.65;1.75;;;;;;;;;;5024107;28;20201;-81
2020/12/14 08:35:32;;;;;;;2.55;1.10;;;;;;;;;;5039967;28;20194;-81
2020/12/14 08:38:06;;;;;;;4.75;1.77;;;;;;;;;;5038589;28;20196;-81
2020/12/14 08:40:32;;;;;;;1.60;1.33;;;;;;;;;;5037723;28;20282;-81
2020/12/14 08:43:08;;;;;;;6.30;2.03;;;;;;;;;;5039278;28;20175;-76
2020/12/14 08:45:34;;;;;;;2.28;1.50;;;;;;;;;;5035842;28;20202;-75
2020/12/14 08:48:01;;;;;;;6.55;1.42;;;;;;;;;;5021639;28;20209;-76
2020/12/14 08:50:28;;;;;;;1.98;1.20;;;;;;;;;;5023536;28;20253;-76
2020/12/14 08:53:01;;;;;;;1.80;1.63;;;;;;;;;;5038952;28;20615;-76
2020/12/14 08:55:34;;;;;;;3.55;1.90;;;;;;;;;;5037481;28;20226;-76
2020/12/14 08:58:00;;;;;;;5.72;1.33;;;;;;;;;;5022442;28;20178;-76
2020/12/14 09:00:26;;;;;;;2.93;1.40;;;;;;;;;;5023405;28;20232;-76
2020/12/14 09:02:59;;;;;;;3.07;1.93;;;;;;;;;;5032823;28;20449;-76
2020/12/14 09:05:25;;;;;;;5.20;1.52;;;;;;;;;;5016508;28;20437;-76
2020/12/14 09:07:51;;;;;;;2.35;1.52;;;;;;;;;;5038369;28;20217;-76
2020/12/14 09:10:28;;;;;;;5.47;2.05;;;;;;;;;;5023316;28;20297;-76
2020/12/14 09:13:02;;;;;;;4.22;1.80;;;;;;;;;;5020476;28;20170;-76
2020/12/14 09:15:28;;;;;;;4.47;1.52;;;;;;;;;;5023546;28;20174;-76
2020/12/14 09:18:02;;;;;;;7.33;1.57;;;;;;;;;;5023085;28;20198;-76
2020/12/14 09:20:28;;;;;;;5.55;2.00;;;;;;;;;;5030793;28;20446;-76
2020/12/14 09:22:54;;;;;;;6.03;1.80;;;;;;;;;;5032473;28;20213;-76
2020/12/14 09:25:20;;;;;;;4.30;1.63;;;;;;;;;;5038472;28;20178;-76
2020/12/14 09:27:46;;;;;;;5.85;2.22;;;;;;;;;;5023976;28;20457;-76
2020/12/14 09:30:12;;;;;;;5.97;2.00;;;;;;;;;;5023985;28;20688;-76
2020/12/14 09:32:38;;;;;;;2.73;1.50;;;;;;;;;;5037997;28;20430;-76
2020/12/14 09:35:05;;;;;;;5.53;1.85;;;;;;;;;;5022616;28;20456;-76
2020/12/14 09:37:31;;;;;;;3.75;1.73;;;;;;;;;;5030415;28;20274;-76
2020/12/14 09:39:58;;;;;;;7.53;2.42;;;;;;;;;;5021713;28;20209;-76
2020/12/14 09:42:24;;;;;;;3.75;1.83;;;;;;;;;;5022970;28;20579;-76
2020/12/14 09:44:50;;;;;;;2.95;1.90;;;;;;;;;;5023301;28;20194;-76
2020/12/14 09:47:16;;;;;;;2.90;2.23;;;;;;;;;;5023292;28;20262;-76
2020/12/14 09:49:42;;;;;;;3.10;1.73;;;;;;;;;;5022636;28;20456;-76
2020/12/14 09:52:08;;;;;;;2.33;1.10;;;;;;;;;;5021477;28;20449;-76
2020/12/14 09:54:34;;;;;;;5.22;1.80;;;;;;;;;;5022512;28;20221;-76
2020/12/14 09:57:00;;;;;;;3.00;1.70;;;;;;;;;;5036622;28;20190;-76
2020/12/14 09:59:26;;;;;;;2.60;1.90;;;;;;;;;;5022168;28;20456;-76
2020/12/14 10:01:52;;;;;;;2.80;1.77;;;;;;;;;;5022999;28;20459;-76
2020/12/14 10:04:18;;;;;;;4.00;1.40;;;;;;;;;;5023269;28;20441;-76
2020/12/14 10:06:47;;;;;;;3.30;2.03;;;;;;;;;;5023384;28;21111;-76
2020/12/14 10:09:13;;;;;;;5.22;1.75;;;;;;;;;;5021211;28;20233;-75
2020/12/14 10:11:40;;;;;;;2.65;1.60;;;;;;;;;;5019554;28;20703;-75
2020/12/14 10:14:06;;;;;;;3.20;1.30;;;;;;;;;;5037456;28;20190;-76
2020/12/14 10:16:32;;;;;;;2.45;1.70;;;;;;;;;;5036304;28;20209;-75
2020/12/14 10:18:59;;;;;;;3.45;1.30;;;;;;;;;;5022552;28;20674;-75
2020/12/14 10:21:25;;;;;;;2.80;1.40;;;;;;;;;;5023177;28;20186;-75
2020/12/14 10:23:51;;;;;;;4.13;1.60;;;;;;;;;;5019011;28;20229;-75
2020/12/14 10:26:20;;;;;;;3.05;1.25;;;;;;;;;;5035608;28;20264;-76
2020/12/14 10:28:46;;;;;;;3.17;1.50;;;;;;;;;;5021266;28;20186;-76
2020/12/14 10:31:12;;;;;;;2.67;1.52;;;;;;;;;;5026450;28;20213;-76
2020/12/14 10:33:38;;;;;;;2.13;1.40;;;;;;;;;;5023888;28;20664;-76
2020/12/14 10:36:11;;;;;;;3.05;1.83;;;;;;;;;;5037271;28;20437;-75
2020/12/14 10:38:37;;;;;;;3.53;1.50;;;;;;;;;;5036134;28;20206;-75
2020/12/14 10:41:03;;;;;;;2.72;1.77;;;;;;;;;;5024020;28;20197;-75
2020/12/14 10:43:29;;;;;;;2.65;1.63;;;;;;;;;;5037932;28;20255;-75
2020/12/14 10:45:55;;;;;;;2.35;1.70;;;;;;;;;;5039730;28;20181;-76
2020/12/14 10:48:21;;;;;;;2.30;1.70;;;;;;;;;;5014782;28;20175;-75
2020/12/14 10:50:47;;;;;;;2.47;1.35;;;;;;;;;;5024540;28;20429;-76
2020/12/14 10:53:13;;;;;;;4.22;1.83;;;;;;;;;;5021629;28;20552;-76
2020/12/14 10:55:39;;;;;;;5.50;1.52;;;;;;;;;;5040903;28;20230;-76
2020/12/14 10:58:05;;;;;;;3.23;1.50;;;;;;;;;;5023795;28;20183;-76
2020/12/14 11:00:32;;;;;;;1.50;1.30;;;;;;;;;;5024598;28;20449;-76
2020/12/14 11:02:59;;;;;;;1.98;1.35;;;;;;;;;;5040835;28;20190;-76
2020/12/14 11:05:26;;;;;;;3.80;1.77;;;;;;;;;;5041022;28;20536;-81
2020/12/14 11:07:54;;;;;;;4.40;1.55;;;;;;;;;;5025444;28;20261;-80
2020/12/14 11:10:20;;;;;;;6.00;2.00;;;;;;;;;;5024405;28;20170;-80
2020/12/14 11:12:46;;;;;;;4.00;2.20;;;;;;;;;;5025906;28;20175;-82
2020/12/14 11:15:12;;;;;;;5.15;1.95;;;;;;;;;;5025312;28;20437;-81
2020/12/14 11:17:38;;;;;;;3.67;1.70;;;;;;;;;;5023674;28;20190;-81
2020/12/14 11:20:05;;;;;;;5.70;1.45;;;;;;;;;;5025548;28;20190;-81
2020/12/14 11:22:31;;;;;;;2.33;1.77;;;;;;;;;;5040211;28;20183;-81
2020/12/14 11:24:57;;;;;;;6.90;1.70;;;;;;;;;;5025536;28;20203;-82
2020/12/14 11:27:23;;;;;;;1.85;1.23;;;;;;;;;;5019953;28;20216;-81
2020/12/14 11:29:49;;;;;;;1.77;1.17;;;;;;;;;;5023128;28;20218;-81
2020/12/14 11:32:15;;;;;;;5.47;1.60;;;;;;;;;;5014976;28;20190;-81
2020/12/14 11:34:40;;;;;;;3.17;1.50;;;;;;;;;;5015849;28;20179;-81
2020/12/14 11:37:06;;;;;;;3.63;1.67;;;;;;;;;;5040383;28;20293;-81
2020/12/14 11:39:32;;;;;;;2.20;1.57;;;;;;;;;;5016046;28;20432;-81
2020/12/14 11:41:59;;;;;;;5.10;1.88;;;;;;;;;;5022532;28;20447;-81
2020/12/14 11:44:24;;;;;;;5.63;1.85;;;;;;;;;;5025109;28;20261;-82
2020/12/14 11:46:51;;;;;;;2.43;1.47;;;;;;;;;;5025053;28;20194;-81
2020/12/14 11:49:18;;;;;;;7.43;2.35;;;;;;;;;;5024398;28;20484;-82
2020/12/14 11:51:44;;;;;;;5.88;1.27;;;;;;;;;;5022020;28;20182;-81
2020/12/14 11:54:10;;;;;;;2.78;1.42;;;;;;;;;;5024869;28;20229;-75
2020/12/14 11:56:36;;;;;;;8.60;1.75;;;;;;;;;;5039484;28;20190;-75
2020/12/14 11:59:02;;;;;;;2.50;1.80;;;;;;;;;;5023126;28;20289;-76
2020/12/14 12:01:28;;;;;;;3.80;2.03;;;;;;;;;;5037858;28;20939;-76
2020/12/14 12:03:54;;;;;;;5.45;1.60;;;;;;;;;;5025505;28;20738;-76
2020/12/14 12:06:26;;;;;;;5.00;1.70;;;;;;;;;;5024612;28;20245;-76
2020/12/14 12:08:52;;;;;;;5.15;1.63;;;;;;;;;;5039161;28;20440;-75
2020/12/14 12:11:18;;;;;;;4.33;1.60;;;;;;;;;;5024201;28;20179;-76
2020/12/14 12:13:44;;;;;;;5.10;2.40;;;;;;;;;;5021880;28;20506;-76
2020/12/14 12:16:10;;;;;;;7.33;2.20;;;;;;;;;;5024931;28;20465;-76
2020/12/14 12:18:38;;;;;;;5.67;1.57;;;;;;;;;;5015670;28;20425;-75
2020/12/14 12:21:04;;;;;;;3.65;2.00;;;;;;;;;;5016072;28;20446;-75
2020/12/14 12:23:29;;;;;;;4.90;1.50;;;;;;;;;;5036171;28;20186;-75
2020/12/14 12:25:55;;;;;;;5.47;1.93;;;;;;;;;;5039907;28;20541;-76
2020/12/14 12:28:21;;;;;;;3.57;2.03;;;;;;;;;;5037784;28;20671;-76
2020/12/14 12:30:48;;;;;;;10.68;2.30;;;;;;;;;;5024582;28;20426;-76
2020/12/14 12:33:14;;;;;;;6.97;2.15;;;;;;;;;;5039225;28;20186;-76
2020/12/14 12:35:40;;;;;;;5.72;2.10;;;;;;;;;;5024119;28;20193;-76
2020/12/14 12:38:06;;;;;;;4.22;1.50;;;;;;;;;;5036925;28;20217;-76
2020/12/14 12:40:32;;;;;;;6.13;2.17;;;;;;;;;;5037220;28;20197;-76
2020/12/14 12:42:58;;;;;;;5.00;2.10;;;;;;;;;;5017150;28;20246;-76
2020/12/14 12:45:24;;;;;;;4.00;1.50;;;;;;;;;;5019666;28;20453;-76
2020/12/14 12:47:50;;;;;;;4.13;2.20;;;;;;;;;;5017330;28;20495;-76
2020/12/14 12:50:16;;;;;;;3.43;2.57;;;;;;;;;;5020526;28;20492;-76
2020/12/14 12:52:42;;;;;;;10.10;2.53;;;;;;;;;;5017203;28;20488;-76
2020/12/14 12:55:08;;;;;;;5.77;2.60;;;;;;;;;;5019363;28;20225;-76
2020/12/14 12:57:34;;;;;;;5.47;2.10;;;;;;;;;;5018135;28;20912;-76
2020/12/14 13:00:00;;;;;;;5.00;1.87;;;;;;;;;;5034718;28;20437;-76
2020/12/14 13:02:26;;;;;;;5.60;1.95;;;;;;;;;;5015381;28;20536;-76
2020/12/14 13:04:52;;;;;;;2.20;1.70;;;;;;;;;;5018009;28;20256;-76
2020/12/14 13:07:18;;;;;;;4.53;2.57;;;;;;;;;;5035825;28;20240;-76
2020/12/14 13:09:44;;;;;;;4.45;2.63;;;;;;;;;;5035018;28;20452;-76
2020/12/14 13:12:10;;;;;;;4.55;2.20;;;;;;;;;;5021754;28;20190;-76
2020/12/14 13:14:36;;;;;;;7.72;2.60;;;;;;;;;;5038314;28;20212;-76
2020/12/14 13:17:02;;;;;;;5.60;2.38;;;;;;;;;;5034495;28;20258;-76
2020/12/14 13:19:28;;;;;;;7.87;2.87;;;;;;;;;;5036412;28;20241;-76
2020/12/14 13:21:54;;;;;;;3.73;2.07;;;;;;;;;;5023304;28;20512;-77
2020/12/14 13:24:20;;;;;;;4.57;2.30;;;;;;;;;;5024007;28;20432;-76
2020/12/14 13:26:46;;;;;;;5.68;1.95;;;;;;;;;;5038485;28;20507;-76
2020/12/14 13:29:12;;;;;;;4.40;1.67;;;;;;;;;;5023366;28;20187;-76
2020/12/14 13:31:38;;;;;;;3.25;2.08;;;;;;;;;;5038291;28;20430;-76
2020/12/14 13:34:04;;;;;;;4.50;1.70;;;;;;;;;;5038390;28;20178;-76
2020/12/14 13:36:30;;;;;;;5.68;2.20;;;;;;;;;;5024158;28;20417;-76
2020/12/14 13:38:56;;;;;;;6.45;3.00;;;;;;;;;;5022710;28;20202;-76
2020/12/14 13:41:22;;;;;;;3.88;2.40;;;;;;;;;;5023384;28;20187;-76
2020/12/14 13:43:49;;;;;;;2.80;1.98;;;;;;;;;;5037925;28;20221;-77
2020/12/14 13:46:15;;;;;;;4.35;2.20;;;;;;;;;;5021503;28;20183;-76
2020/12/14 13:48:41;;;;;;;4.82;2.40;;;;;;;;;;5019022;28;20179;-76
2020/12/14 13:51:07;;;;;;;3.72;2.15;;;;;;;;;;5019566;28;20194;-76
2020/12/14 13:53:33;;;;;;;4.03;3.50;;;;;;;;;;5022397;28;20182;-76
2020/12/14 13:55:59;;;;;;;5.20;2.97;;;;;;;;;;5021944;28;20191;-76
2020/12/14 13:58:25;;;;;;;3.50;2.10;;;;;;;;;;5030677;28;20190;-76
2020/12/14 14:00:52;;;;;;;4.88;2.42;;;;;;;;;;5014371;28;20181;-76
2020/12/14 14:03:18;;;;;;;4.35;2.00;;;;;;;;;;5022929;28;20179;-76
2020/12/14 14:05:44;;;;;;;3.90;2.00;;;;;;;;;;5037779;28;20205;-76
2020/12/14 14:08:10;;;;;;;8.30;2.23;;;;;;;;;;5037049;28;20205;-76
2020/12/14 14:10:37;;;;;;;4.35;2.65;;;;;;;;;;5011134;28;20437;-76
2020/12/14 14:13:03;;;;;;;3.40;2.30;;;;;;;;;;5036892;28;20206;-77
2020/12/14 14:15:29;;;;;;;4.10;2.70;;;;;;;;;;5020864;28;20174;-77
2020/12/14 14:17:55;;;;;;;4.28;2.90;;;;;;;;;;5022563;28;20206;-77
2020/12/14 14:20:22;;;;;;;5.55;2.42;;;;;;;;;;5037821;28;20213;-76
2020/12/14 14:22:48;;;;;;;3.10;2.30;;;;;;;;;;5020552;28;20206;-77
2020/12/14 14:25:14;;;;;;;3.28;1.88;;;;;;;;;;5053709;28;20535;-77
2020/12/14 14:27:40;;;;;;;3.00;1.90;;;;;;;;;;5021920;28;20198;-77
2020/12/14 14:30:06;;;;;;;7.05;3.30;;;;;;;;;;5024497;28;20437;-77
2020/12/14 14:32:32;;;;;;;4.50;2.87;;;;;;;;;;5037514;28;20246;-77
2020/12/14 14:34:58;;;;;;;3.45;2.00;;;;;;;;;;5039341;28;20440;-77
2020/12/14 14:37:25;;;;;;;2.50;2.20;;;;;;;;;;5036864;28;20244;-77
2020/12/14 14:39:51;;;;;;;7.97;2.38;;;;;;;;;;5029625;28;20209;-77
2020/12/14 14:42:18;;;;;;;2.65;2.30;;;;;;;;;;5021508;28;20222;-77